Time;durP1;ratioP1;P1;durP2;ratioP2;P2;SDS_P1;SDS_P2;PMS_P1;PMS_P2;Temp;Humidity;BMP_temperature;BMP_pressure;BME280_temperature;BME280_humidity;BME280_pressure;Samples;Min_cycle;Max_cycle;Signal;HPM_P1;HPM_P2
2022/01/31 00:00:38;;;;;;;8.77;5.07;;;4.80;99.90;;;;;;6140471;23;20176;-89
2022/01/31 00:03:14;;;;;;;6.95;4.68;;;4.80;99.90;;;;;;6138167;23;20285;-89
2022/01/31 00:06:20;;;;;;;5.65;4.13;;;5.40;99.90;;;;;;6136735;23;20176;-90
2022/01/31 00:08:46;;;;;;;7.55;3.67;;;3.50;99.90;;;;;;6166674;23;20175;-90
2022/01/31 00:11:15;;;;;;;6.67;4.10;;;4.60;99.90;;;;;;6176922;23;20193;-90
2022/01/31 00:14:15;;;;;;;8.75;3.95;;;4.60;99.90;;;;;;6147587;23;20242;-89
2022/01/31 00:17:25;;;;;;;3.10;2.78;;;4.90;99.90;;;;;;6175762;23;20141;-90
2022/01/31 00:20:06;;;;;;;5.57;4.22;;;5.10;99.90;;;;;;6119976;23;20825;-88
2022/01/31 00:22:32;;;;;;;6.13;4.22;;;5.10;99.90;;;;;;6092069;23;20170;-90
2022/01/31 00:24:58;;;;;;;8.53;3.70;;;;;;;;;;6140061;23;20161;-90
2022/01/31 00:27:39;;;;;;;9.45;4.50;;;4.90;99.90;;;;;;6120962;23;20137;-90
2022/01/31 00:30:09;;;;;;;8.25;5.10;;;4.90;99.90;;;;;;6116600;23;20150;-90
2022/01/31 00:32:56;;;;;;;;;;;;;;;;;;;;;
2022/01/31 00:35:37;;;;;;;13.00;3.65;;;5.00;99.90;;;;;;6142806;23;20181;-90
2022/01/31 00:38:06;;;;;;;7.70;3.90;;;4.90;99.90;;;;;;6117023;23;20157;-91
2022/01/31 00:40:42;;;;;;;4.70;3.65;;;4.90;99.90;;;;;;6119734;23;20157;-89
2022/01/31 00:43:18;;;;;;;4.57;3.47;;;4.90;99.90;;;;;;6121010;23;20153;-90
2022/01/31 00:46:02;;;;;;;13.65;4.15;;;5.00;99.90;;;;;;6115042;23;20134;-91
2022/01/31 00:48:34;;;;;;;11.63;4.20;;;5.10;99.90;;;;;;6117611;23;20149;-91
2022/01/31 00:51:06;;;;;;;9.88;3.95;;;5.00;99.90;;;;;;6114882;23;20149;-90
2022/01/31 00:53:32;;;;;;;6.18;4.82;;;3.50;99.90;;;;;;6118884;23;20152;-89
2022/01/31 00:55:58;;;;;;;6.07;3.70;;;4.90;99.90;;;;;;6119766;23;20181;-90
2022/01/31 00:58:26;;;;;;;7.30;3.80;;;5.00;99.90;;;;;;6113558;23;20150;-90
2022/01/31 01:00:54;;;;;;;5.82;3.65;;;;;;;;;;6122141;23;20202;-84
2022/01/31 01:03:39;;;;;;;9.55;4.55;;;5.00;99.90;;;;;;6115529;23;20585;-92
2022/01/31 01:06:14;;;;;;;4.22;3.78;;;5.00;99.90;;;;;;6110299;23;20157;-89
2022/01/31 01:08:50;;;;;;;5.78;3.75;;;5.00;99.90;;;;;;6113906;23;20152;-90
2022/01/31 01:11:17;;;;;;;13.05;3.70;;;5.00;99.90;;;;;;6120089;23;20149;-90
2022/01/31 01:13:42;;;;;;;4.60;3.15;;;4.90;99.90;;;;;;6108449;23;20167;-89
2022/01/31 01:16:09;;;;;;;10.70;3.57;;;5.00;99.90;;;;;;6137919;23;20204;-90
2022/01/31 01:18:37;;;;;;;6.65;3.38;;;5.00;99.90;;;;;;6136273;23;20185;-89
2022/01/31 01:21:03;;;;;;;7.20;3.95;;;;;;;;;;6106621;23;20146;-90
2022/01/31 01:23:30;;;;;;;6.50;2.47;;;;;;;;;;6108705;23;20488;-90
2022/01/31 01:25:58;;;;;;;7.68;3.00;;;5.00;99.90;;;;;;6107033;23;20282;-90
2022/01/31 01:28:25;;;;;;;12.07;4.40;;;6.10;99.90;;;;;;6129237;23;20225;-90
2022/01/31 01:30:54;;;;;;;5.28;3.63;;;4.90;99.90;;;;;;6114628;23;20173;-91
2022/01/31 01:33:29;;;;;;;14.05;5.28;;;4.80;99.90;;;;;;6110071;23;20158;-89
2022/01/31 01:35:55;;;;;;;11.82;3.88;;;5.00;99.90;;;;;;6136228;23;20660;-89
2022/01/31 01:38:28;;;;;;;3.87;3.10;;;4.90;99.90;;;;;;6110209;23;20137;-89
2022/01/31 01:40:59;;;;;;;3.78;3.15;;;5.00;99.90;;;;;;6131875;23;20887;-89
2022/01/31 01:43:25;;;;;;;3.80;3.40;;;4.90;99.90;;;;;;6104079;23;20661;-89
2022/01/31 01:45:53;;;;;;;7.72;2.33;;;4.90;99.90;;;;;;6135965;23;20213;-91
2022/01/31 01:51:18;;;;;;;4.57;3.38;;;6.20;99.90;;;;;;6131715;23;20160;-89
2022/01/31 01:53:46;;;;;;;9.77;4.97;;;4.90;99.90;;;;;;6109407;23;20157;-89
2022/01/31 01:56:14;;;;;;;9.15;3.22;;;4.90;99.90;;;;;;6141358;23;20169;-90
2022/01/31 01:58:43;;;;;;;7.15;4.38;;;4.90;99.90;;;;;;6110530;23;20157;-90
2022/01/31 02:01:12;;;;;;;13.18;4.75;;;4.90;99.90;;;;;;6101478;23;20149;-89
2022/01/31 02:03:40;;;;;;;6.53;3.88;;;5.00;99.90;;;;;;6103877;23;20165;-90
2022/01/31 02:06:12;;;;;;;5.05;2.83;;;5.00;99.90;;;;;;6103633;23;20141;-90
2022/01/31 02:08:42;;;;;;;5.55;3.53;;;5.00;99.90;;;;;;6117586;23;20153;-89
2022/01/31 02:11:10;;;;;;;8.00;3.25;;;5.00;99.90;;;;;;6111637;23;20188;-89
2022/01/31 02:13:42;;;;;;;5.28;3.13;;;4.90;99.90;;;;;;6141755;23;20214;-91
2022/01/31 02:16:09;;;;;;;3.80;3.25;;;5.90;99.90;;;;;;6121623;23;20177;-91
2022/01/31 02:19:18;;;;;;;;;;;;;;;;;;;;;
2022/01/31 02:21:48;;;;;;;5.32;3.75;;;4.60;99.90;;;;;;6126291;23;20208;-91
2022/01/31 02:24:30;;;;;;;;;;;;;;;;;;;;;
2022/01/31 02:27:13;;;;;;;7.00;3.40;;;7.10;99.90;;;;;;6152748;23;20141;-91
2022/01/31 02:29:39;;;;;;;14.43;4.63;;;4.50;99.90;;;;;;6121762;23;20141;-90
2022/01/31 02:32:12;;;;;;;7.70;4.00;;;;;;;;;;6149317;23;20203;-91
2022/01/31 02:34:38;;;;;;;9.65;4.32;;;4.30;99.90;;;;;;6109973;23;20201;-90
2022/01/31 02:37:06;;;;;;;10.03;4.03;;;4.20;99.90;;;;;;6104728;23;20169;-92
2022/01/31 02:39:38;;;;;;;6.80;4.20;;;4.10;99.90;;;;;;6102821;23;20398;-91
2022/01/31 02:42:04;;;;;;;4.63;2.45;;;4.10;99.90;;;;;;6098270;23;20192;-92
2022/01/31 02:44:32;;;;;;;7.75;3.63;;;4.20;99.90;;;;;;6096837;23;20150;-91
2022/01/31 02:50:12;;;;;;;2.28;1.98;;;4.00;99.90;;;;;;6113452;23;20157;-92
2022/01/31 02:52:45;;;;;;;8.63;4.38;;;4.00;99.90;;;;;;6110718;23;20586;-91
2022/01/31 02:55:11;;;;;;;9.07;4.10;;;4.00;99.90;;;;;;6110787;23;20188;-91
2022/01/31 02:57:39;;;;;;;9.40;2.03;;;3.90;99.90;;;;;;6111574;23;20150;-91
2022/01/31 03:00:08;;;;;;;8.23;4.43;;;4.10;99.90;;;;;;6109369;23;20449;-92
2022/01/31 03:02:34;;;;;;;6.75;2.58;;;4.00;99.90;;;;;;6113076;23;20240;-91
2022/01/31 03:05:00;;;;;;;3.27;3.00;;;;;;;;;;6113790;23;20177;-90
2022/01/31 03:07:26;;;;;;;8.73;3.92;;;3.90;99.90;;;;;;6113030;23;20242;-92
2022/01/31 03:09:57;;;;;;;10.27;4.60;;;3.90;99.90;;;;;;6115388;23;20158;-92
2022/01/31 03:12:33;;;;;;;9.90;4.65;;;4.00;99.90;;;;;;6115732;23;20450;-93
2022/01/31 03:14:59;;;;;;;3.22;2.83;;;3.90;99.90;;;;;;6114962;23;20237;-92
2022/01/31 03:17:30;;;;;;;8.83;4.30;;;;;;;;;;6115280;23;20364;-91
2022/01/31 03:20:03;;;;;;;8.30;2.55;;;3.90;99.90;;;;;;6119653;23;20355;-91
2022/01/31 03:22:35;;;;;;;3.03;3.03;;;3.90;99.90;;;;;;6121002;23;20125;-91
2022/01/31 03:25:11;;;;;;;13.05;3.90;;;3.80;99.90;;;;;;6112006;23;20233;-90
2022/01/31 03:27:38;;;;;;;3.53;3.22;;;3.90;99.90;;;;;;6110620;23;20208;-90
2022/01/31 03:30:10;;;;;;;6.45;4.80;;;3.90;99.90;;;;;;6111576;23;20161;-92
2022/01/31 03:32:41;;;;;;;2.50;2.40;;;3.80;99.90;;;;;;6112716;23;20178;-92
2022/01/31 03:35:11;;;;;;;5.32;3.60;;;3.80;99.90;;;;;;6162774;23;20169;-91
2022/01/31 03:37:49;;;;;;;3.75;3.55;;;3.90;99.90;;;;;;6151298;23;20176;-90
2022/01/31 03:40:15;;;;;;;3.80;1.50;;;5.30;99.90;;;;;;6148120;23;20640;-89
2022/01/31 03:42:43;;;;;;;3.90;3.53;;;3.90;99.90;;;;;;6150305;23;20172;-90
2022/01/31 03:45:11;;;;;;;3.75;2.70;;;3.90;99.90;;;;;;6173219;23;20444;-86
2022/01/31 03:47:46;;;;;;;5.72;3.63;;;4.00;99.90;;;;;;6172108;23;20149;-89
2022/01/31 03:50:17;;;;;;;8.27;4.07;;;4.00;99.90;;;;;;6151738;23;20156;-92
2022/01/31 03:52:43;;;;;;;5.05;3.47;;;3.90;99.90;;;;;;6171933;23;20185;-91
2022/01/31 03:55:17;;;;;;;1.95;1.95;;;4.00;99.90;;;;;;6172479;23;20195;-91
2022/01/31 03:57:47;;;;;;;4.78;3.63;;;4.10;99.90;;;;;;6149516;23;20149;-92
2022/01/31 04:00:22;;;;;;;4.55;3.85;;;3.90;99.90;;;;;;6146093;23;20165;-90
2022/01/31 04:02:58;;;;;;;5.38;3.65;;;4.10;99.90;;;;;;6149904;23;20168;-90
2022/01/31 04:05:26;;;;;;;11.68;4.50;;;4.10;99.90;;;;;;6177937;23;20124;-91
2022/01/31 04:07:52;;;;;;;4.80;4.30;;;4.10;99.90;;;;;;6172266;23;20153;-90
2022/01/31 04:10:20;;;;;;;6.03;4.23;;;;;;;;;;6154791;23;20168;-91
2022/01/31 04:12:50;;;;;;;4.03;2.75;;;3.50;99.90;;;;;;6153631;23;20165;-90
2022/01/31 04:15:18;;;;;;;6.18;3.38;;;4.40;99.90;;;;;;6150061;23;20239;-91
2022/01/31 04:17:45;;;;;;;6.50;5.03;;;4.30;99.90;;;;;;6150293;23;20169;-90
2022/01/31 04:28:33;;;;;;;6.32;4.30;;;4.40;99.90;;;;;;6151908;23;20238;-90
2022/01/31 04:33:53;;;;;;;4.65;3.58;;;4.40;99.90;;;;;;6157792;23;20141;-86
2022/01/31 04:36:22;;;;;;;8.13;4.97;;;4.50;99.90;;;;;;6143854;23;20272;-90
2022/01/31 04:38:53;;;;;;;5.65;5.25;;;4.50;99.90;;;;;;6145530;23;20166;-91
2022/01/31 04:41:20;;;;;;;3.67;3.33;;;4.50;99.90;;;;;;6143577;23;20177;-90
2022/01/31 04:43:57;;;;;;;8.18;5.50;;;4.70;99.90;;;;;;6145191;23;20150;-90
2022/01/31 04:46:25;;;;;;;8.13;7.32;;;3.90;99.90;;;;;;6137785;23;20165;-90
2022/01/31 04:48:56;;;;;;;8.27;7.45;;;4.70;99.90;;;;;;6138107;23;20347;-89
2022/01/31 04:51:22;;;;;;;14.30;9.95;;;4.70;99.90;;;;;;6146794;23;20149;-92
2022/01/31 04:53:50;;;;;;;12.83;11.03;;;4.90;99.90;;;;;;6148136;23;20226;-90
2022/01/31 04:56:17;;;;;;;20.05;9.60;;;4.80;99.90;;;;;;6147004;23;20217;-93
2022/01/31 04:58:46;;;;;;;12.25;11.05;;;4.90;99.90;;;;;;6150781;23;20597;-92
2022/01/31 05:01:14;;;;;;;12.82;8.77;;;;;;;;;;6141081;23;20154;-90
2022/01/31 05:03:41;;;;;;;15.07;8.65;;;;;;;;;;6138314;23;20166;-90
2022/01/31 05:06:08;;;;;;;14.25;10.25;;;5.00;99.90;;;;;;6135070;23;20181;-92
2022/01/31 05:08:40;;;;;;;11.50;7.90;;;5.10;99.90;;;;;;6134299;23;20160;-92
2022/01/31 05:11:08;;;;;;;12.98;8.65;;;6.10;99.90;;;;;;6143790;23;20137;-91
2022/01/31 05:13:38;;;;;;;14.93;9.93;;;5.10;99.90;;;;;;6141936;23;20149;-90
2022/01/31 05:16:06;;;;;;;9.98;8.43;;;5.20;99.90;;;;;;6139483;23;20223;-91
2022/01/31 05:18:33;;;;;;;11.70;7.85;;;5.10;99.90;;;;;;6139599;23;20676;-84
2022/01/31 05:21:04;;;;;;;11.65;9.15;;;5.30;99.90;;;;;;6139625;23;20212;-90
2022/01/31 05:23:32;;;;;;;14.50;10.27;;;5.30;99.90;;;;;;6146095;23;20132;-89
2022/01/31 05:26:01;;;;;;;12.73;8.90;;;5.10;99.90;;;;;;6147950;23;20165;-92
2022/01/31 05:28:55;;;;;;;15.30;9.35;;;5.30;99.90;;;;;;6143750;23;20146;-93
2022/01/31 05:31:40;;;;;;;14.20;9.50;;;5.40;99.90;;;;;;6131995;23;20228;-87
2022/01/31 05:34:12;;;;;;;12.05;7.85;;;5.30;99.90;;;;;;6143713;23;20144;-89
2022/01/31 05:36:46;;;;;;;12.00;8.15;;;5.40;99.90;;;;;;6143918;23;20169;-88
2022/01/31 05:39:16;;;;;;;17.90;9.00;;;5.50;99.90;;;;;;6115360;23;20213;-91
2022/01/31 05:41:42;;;;;;;27.08;9.45;;;5.50;99.90;;;;;;6119632;23;20428;-92
2022/01/31 05:44:13;;;;;;;12.20;8.40;;;5.30;99.90;;;;;;6144848;23;20172;-86
2022/01/31 05:46:39;;;;;;;9.25;6.82;;;6.60;99.90;;;;;;6141742;23;20154;-91
2022/01/31 05:49:04;;;;;;;15.47;7.10;;;5.50;99.90;;;;;;6111353;23;20165;-90
2022/01/31 05:51:32;;;;;;;7.63;6.83;;;5.50;99.90;;;;;;6155393;23;20188;-92
2022/01/31 05:54:00;;;;;;;9.98;5.13;;;5.50;99.90;;;;;;6171976;23;20164;-91
2022/01/31 05:56:26;;;;;;;10.80;7.90;;;5.60;99.90;;;;;;6165945;23;20176;-90
2022/01/31 05:58:52;;;;;;;8.77;6.60;;;5.50;99.90;;;;;;6168586;23;20133;-91
2022/01/31 06:01:18;;;;;;;16.75;5.15;;;;;;;;;;6157917;23;20247;-90
2022/01/31 06:03:44;;;;;;;13.93;7.93;;;5.70;99.90;;;;;;6159624;23;20248;-91
2022/01/31 06:06:10;;;;;;;13.27;8.03;;;5.50;99.90;;;;;;6162533;23;20161;-91
2022/01/31 06:08:36;;;;;;;11.10;7.33;;;;;;;;;;6162064;23;20165;-92
2022/01/31 06:11:02;;;;;;;13.07;6.50;;;5.60;99.90;;;;;;6160520;23;20581;-90
2022/01/31 06:13:31;;;;;;;13.20;6.13;;;6.10;99.90;;;;;;6158583;23;20164;-87
2022/01/31 06:15:57;;;;;;;9.75;6.18;;;5.60;99.90;;;;;;6157506;23;20192;-85
2022/01/31 06:18:23;;;;;;;10.50;5.83;;;;;;;;;;6158339;23;20161;-92
2022/01/31 06:20:49;;;;;;;15.95;8.57;;;5.70;99.90;;;;;;6158741;23;20224;-90
2022/01/31 06:23:15;;;;;;;7.80;6.27;;;;;;;;;;6165745;23;20152;-87
2022/01/31 06:25:41;;;;;;;16.30;7.00;;;5.70;99.90;;;;;;6161717;23;20164;-92
2022/01/31 06:28:07;;;;;;;14.15;6.10;;;5.60;99.90;;;;;;6161747;23;20402;-88
2022/01/31 06:30:36;;;;;;;9.57;6.53;;;5.70;99.90;;;;;;6157445;23;20168;-87
2022/01/31 06:33:02;;;;;;;8.30;5.80;;;5.70;99.90;;;;;;6159709;23;20310;-91
2022/01/31 06:35:28;;;;;;;6.67;5.33;;;5.60;99.90;;;;;;6155165;23;20191;-84
2022/01/31 06:37:54;;;;;;;5.53;3.23;;;5.60;99.90;;;;;;6163199;23;20397;-89
2022/01/31 06:40:20;;;;;;;14.47;5.40;;;5.70;99.90;;;;;;6153450;23;20368;-91
2022/01/31 06:42:46;;;;;;;8.10;3.60;;;5.70;99.90;;;;;;6161039;23;20232;-92
2022/01/31 06:45:12;;;;;;;5.17;4.03;;;;;;;;;;6154761;23;20608;-91
2022/01/31 06:47:40;;;;;;;5.93;4.38;;;5.70;99.90;;;;;;6161744;23;20180;-89
2022/01/31 06:50:10;;;;;;;12.60;4.45;;;5.60;99.90;;;;;;6156758;23;20156;-86
2022/01/31 06:52:42;;;;;;;5.95;3.67;;;5.50;99.90;;;;;;6155752;23;20191;-92
2022/01/31 06:55:09;;;;;;;3.45;3.25;;;5.50;99.90;;;;;;6154478;23;20182;-90
2022/01/31 06:57:36;;;;;;;9.68;3.70;;;5.60;99.90;;;;;;6156625;23;20164;-89
2022/01/31 07:00:07;;;;;;;6.32;2.60;;;8.70;99.90;;;;;;6155249;23;20199;-91
2022/01/31 07:02:41;;;;;;;7.00;2.65;;;5.50;99.90;;;;;;6155177;23;20137;-87
2022/01/31 07:05:07;;;;;;;3.50;3.17;;;5.00;99.90;;;;;;6155945;23;20588;-89
2022/01/31 07:07:33;;;;;;;7.95;2.85;;;5.20;99.90;;;;;;6156695;23;20168;-90
2022/01/31 07:10:05;;;;;;;5.70;3.00;;;5.00;99.90;;;;;;6157548;23;20149;-82
2022/01/31 07:12:34;;;;;;;3.58;2.70;;;4.80;99.90;;;;;;6150819;23;20396;-89
2022/01/31 07:15:01;;;;;;;3.08;2.88;;;5.10;99.90;;;;;;6154890;23;20180;-87
2022/01/31 07:17:27;;;;;;;5.63;2.58;;;4.30;99.90;;;;;;6153861;23;20616;-84
2022/01/31 07:20:19;;;;;;;3.03;1.88;;;4.50;99.90;;;;;;6152888;23;20163;-91
2022/01/31 07:23:02;;;;;;;2.35;1.25;;;4.50;99.90;;;;;;6154024;23;20199;-92
2022/01/31 07:25:36;;;;;;;3.63;1.58;;;4.50;99.90;;;;;;6157203;23;20145;-94
2022/01/31 07:28:10;;;;;;;3.10;1.85;;;4.40;99.90;;;;;;6147855;23;20160;-83
2022/01/31 07:30:38;;;;;;;2.90;1.77;;;4.40;99.90;;;;;;6150593;23;20159;-86
2022/01/31 07:33:04;;;;;;;3.60;1.85;;;5.10;99.90;;;;;;6150106;23;20196;-89
2022/01/31 07:35:30;;;;;;;1.90;1.80;;;4.50;99.90;;;;;;6150749;23;20185;-85
2022/01/31 07:37:56;;;;;;;1.60;1.60;;;4.40;99.90;;;;;;6145934;23;20212;-83
2022/01/31 07:40:30;;;;;;;2.00;1.97;;;4.50;99.90;;;;;;6150276;23;20408;-89
2022/01/31 07:42:55;;;;;;;2.78;1.48;;;4.50;99.90;;;;;;6147795;23;20437;-87
2022/01/31 07:45:21;;;;;;;1.63;1.53;;;;;;;;;;6152155;23;20197;-91
2022/01/31 07:47:57;;;;;;;5.38;2.42;;;4.60;99.90;;;;;;6149680;23;20152;-88
2022/01/31 07:50:22;;;;;;;4.20;2.13;;;5.00;99.90;;;;;;6150124;23;20610;-87
2022/01/31 07:52:48;;;;;;;1.63;1.60;;;;;;;;;;6148179;23;20149;-88
2022/01/31 07:55:15;;;;;;;5.68;2.60;;;4.30;99.90;;;;;;6158516;23;20467;-91
2022/01/31 07:57:42;;;;;;;6.72;2.67;;;;;;;;;;6151628;23;20483;-89
2022/01/31 08:00:09;;;;;;;1.77;1.67;;;4.70;99.90;;;;;;6152591;23;20157;-88
2022/01/31 08:02:36;;;;;;;14.30;3.50;;;4.60;99.90;;;;;;6155426;23;20168;-88
2022/01/31 08:05:02;;;;;;;3.78;3.40;;;4.60;99.90;;;;;;6157421;23;20160;-84
2022/01/31 08:07:28;;;;;;;4.30;3.47;;;;;;;;;;6152241;23;20167;-87
2022/01/31 08:09:56;;;;;;;6.63;2.67;;;4.50;99.90;;;;;;6153156;23;20418;-89
2022/01/31 08:12:24;;;;;;;3.03;2.72;;;3.90;99.90;;;;;;6154554;23;20153;-89
2022/01/31 08:14:51;;;;;;;3.25;3.03;;;;;;;;;;6150542;23;20188;-89
2022/01/31 08:17:17;;;;;;;3.08;2.10;;;4.60;99.90;;;;;;6156516;23;20164;-88
2022/01/31 08:19:43;;;;;;;7.73;3.33;;;5.00;99.90;;;;;;6155147;23;20627;-86
2022/01/31 08:22:45;;;;;;;3.20;2.00;;;4.40;99.90;;;;;;6152523;23;20622;-89
2022/01/31 08:25:14;;;;;;;3.95;2.40;;;4.80;99.90;;;;;;6150327;23;20165;-85
2022/01/31 08:27:49;;;;;;;9.55;2.95;;;4.70;99.90;;;;;;6153587;23;20234;-90
2022/01/31 08:30:25;;;;;;;3.80;3.60;;;4.60;99.90;;;;;;6152490;23;20175;-85
2022/01/31 08:33:14;;;;;;;4.05;3.00;;;5.10;99.90;;;;;;6154946;23;20157;-87
2022/01/31 08:35:50;;;;;;;9.55;4.00;;;4.80;99.90;;;;;;6153234;23;20263;-89
2022/01/31 08:38:17;;;;;;;6.82;2.90;;;4.60;99.90;;;;;;6155368;23;20155;-87
2022/01/31 08:40:43;;;;;;;4.43;3.00;;;4.60;99.90;;;;;;6151763;23;20165;-86
2022/01/31 08:43:11;;;;;;;2.92;2.83;;;4.60;99.90;;;;;;6153496;23;20157;-86
2022/01/31 08:45:41;;;;;;;3.38;3.08;;;4.60;99.90;;;;;;6153972;23;20238;-88
2022/01/31 08:48:13;;;;;;;6.23;2.13;;;4.70;99.90;;;;;;6157849;23;20153;-85
2022/01/31 08:50:42;;;;;;;4.25;3.85;;;5.50;99.90;;;;;;6155807;23;20422;-88
2022/01/31 08:53:09;;;;;;;9.40;3.75;;;4.70;99.90;;;;;;6154991;23;20155;-88
2022/01/31 08:55:38;;;;;;;5.05;3.75;;;4.70;99.90;;;;;;6155856;23;20191;-91
2022/01/31 08:58:07;;;;;;;3.53;3.22;;;4.70;99.90;;;;;;6136320;23;20161;-88
2022/01/31 09:00:34;;;;;;;3.60;3.30;;;4.70;99.90;;;;;;6154832;23;20160;-88
2022/01/31 09:05:43;;;;;;;7.93;4.72;;;4.70;99.90;;;;;;6164893;23;20136;-88
2022/01/31 09:08:08;;;;;;;3.97;3.33;;;4.70;99.90;;;;;;6155774;23;20355;-91
2022/01/31 09:10:40;;;;;;;6.90;4.63;;;4.50;99.90;;;;;;6161439;23;20157;-91
2022/01/31 09:13:06;;;;;;;9.75;4.97;;;4.70;99.90;;;;;;6160033;23;20156;-85
2022/01/31 09:15:42;;;;;;;8.10;5.50;;;4.60;99.90;;;;;;6154842;23;20196;-89
2022/01/31 09:18:08;;;;;;;11.48;3.33;;;;;;;;;;6158543;23;20136;-82
2022/01/31 09:20:34;;;;;;;11.10;3.47;;;4.70;99.90;;;;;;6160315;23;20228;-81
2022/01/31 09:23:02;;;;;;;6.70;2.60;;;;;;;;;;6160362;23;20609;-85
2022/01/31 09:25:29;;;;;;;2.38;1.95;;;4.70;99.90;;;;;;6155738;23;20169;-85
2022/01/31 09:28:26;;;;;;;1.90;1.75;;;4.70;99.90;;;;;;6161517;23;20199;-89
2022/01/31 09:30:53;;;;;;;2.35;2.22;;;4.70;99.90;;;;;;6159638;23;20692;-88
2022/01/31 09:33:19;;;;;;;5.28;2.95;;;4.70;99.90;;;;;;6160629;23;20154;-87
2022/01/31 09:35:45;;;;;;;4.13;2.50;;;;;;;;;;6161539;23;20235;-88
2022/01/31 09:38:26;;;;;;;12.55;4.03;;;4.70;99.90;;;;;;6162442;23;20191;-89
2022/01/31 09:41:04;;;;;;;6.38;2.70;;;4.70;99.90;;;;;;6163259;23;20180;-87
2022/01/31 09:49:05;;;;;;;0.98;0.98;;;4.90;99.90;;;;;;6112642;23;20191;-80
2022/01/31 09:51:56;;;;;;;6.67;2.70;;;5.00;99.90;;;;;;6144625;23;20497;-78
2022/01/31 09:54:24;;;;;;;14.45;4.40;;;5.30;99.90;;;;;;6164157;23;20133;-83
2022/01/31 09:56:50;;;;;;;3.50;1.98;;;4.60;99.90;;;;;;6160677;23;20185;-87
2022/01/31 09:59:59;;;;;;;12.73;3.30;;;4.90;99.90;;;;;;6163078;23;20192;-91
2022/01/31 10:02:27;;;;;;;7.05;2.03;;;5.10;99.90;;;;;;6160396;23;20282;-87
2022/01/31 10:04:53;;;;;;;5.55;2.55;;;4.90;99.90;;;;;;6156557;23;20514;-85
2022/01/31 10:07:51;;;;;;;7.80;2.30;;;4.90;99.90;;;;;;6161573;23;20180;-89
2022/01/31 10:10:41;;;;;;;5.75;2.08;;;5.00;99.90;;;;;;6155849;23;20163;-87
2022/01/31 10:16:32;;;;;;;5.80;3.10;;;4.90;99.90;;;;;;6167160;23;20186;-91
2022/01/31 10:19:08;;;;;;;4.88;1.85;;;5.10;99.90;;;;;;6162230;23;20460;-89
2022/01/31 10:21:52;;;;;;;8.95;2.53;;;5.10;99.90;;;;;;6161709;23;20195;-89
2022/01/31 10:24:22;;;;;;;4.47;3.00;;;5.10;99.90;;;;;;6163025;23;20141;-89
2022/01/31 10:26:52;;;;;;;5.78;2.50;;;5.90;99.90;;;;;;6158920;23;20171;-86
2022/01/31 10:29:21;;;;;;;6.38;3.42;;;5.10;99.90;;;;;;6156314;23;20224;-84
2022/01/31 10:32:37;;;;;;;6.75;2.58;;;5.00;99.90;;;;;;6162741;23;20172;-87
2022/01/31 10:35:12;;;;;;;5.97;2.50;;;5.10;99.90;;;;;;6163384;23;20176;-81
2022/01/31 10:38:36;;;;;;;10.35;2.85;;;4.90;99.90;;;;;;6171079;23;20143;-88
2022/01/31 10:44:43;;;;;;;8.57;3.00;;;;;;;;;;6164096;23;20202;-88
2022/01/31 10:53:01;;;;;;;6.80;2.15;;;5.30;99.90;;;;;;6130568;23;20293;-87
2022/01/31 10:55:49;;;;;;;8.07;3.00;;;5.00;99.90;;;;;;6137210;23;20352;-90
2022/01/31 10:58:15;;;;;;;7.70;2.50;;;5.90;99.90;;;;;;6129642;23;20157;-89
2022/01/31 11:00:45;;;;;;;8.05;3.38;;;5.10;99.90;;;;;;6129273;23;20164;-86
2022/01/31 11:03:29;;;;;;;4.45;2.28;;;5.10;99.90;;;;;;6088224;23;20221;-80
2022/01/31 11:05:55;;;;;;;8.40;3.25;;;5.10;99.90;;;;;;6090950;23;20170;-81
2022/01/31 11:08:21;;;;;;;9.40;2.90;;;5.10;99.90;;;;;;6087902;23;20171;-83
2022/01/31 11:10:47;;;;;;;7.47;3.10;;;5.20;99.90;;;;;;6091067;23;20621;-81
2022/01/31 11:13:16;;;;;;;13.93;2.70;;;5.10;99.90;;;;;;6087154;23;20386;-82
2022/01/31 11:15:43;;;;;;;8.77;1.95;;;5.70;99.90;;;;;;6089427;23;20185;-82
2022/01/31 11:18:10;;;;;;;6.40;2.60;;;5.70;99.90;;;;;;6087621;23;20327;-76
2022/01/31 11:20:44;;;;;;;7.57;3.17;;;4.80;99.90;;;;;;6083786;23;20158;-80
2022/01/31 11:23:11;;;;;;;5.60;3.20;;;5.30;99.90;;;;;;6059508;23;20516;-83
2022/01/31 11:25:40;;;;;;;6.18;2.45;;;5.30;99.90;;;;;;6083973;23;20332;-80
2022/01/31 11:28:08;;;;;;;7.93;3.05;;;5.70;99.90;;;;;;6085459;23;20150;-83
2022/01/31 11:30:34;;;;;;;4.30;2.90;;;5.10;99.90;;;;;;6058003;23;20196;-83
2022/01/31 11:33:02;;;;;;;11.87;3.50;;;5.50;99.90;;;;;;6058372;23;20602;-83
2022/01/31 11:35:28;;;;;;;10.50;3.97;;;5.10;99.90;;;;;;6081373;23;20422;-83
2022/01/31 11:37:54;;;;;;;6.67;2.70;;;5.40;99.90;;;;;;6088765;23;20194;-82
2022/01/31 11:40:21;;;;;;;8.52;3.47;;;5.30;99.90;;;;;;6087284;23;20386;-85
2022/01/31 11:42:49;;;;;;;11.75;3.65;;;5.10;99.90;;;;;;6087790;23;20154;-82
2022/01/31 11:45:32;;;;;;;15.15;3.50;;;5.20;99.90;;;;;;6090081;23;20165;-82
2022/01/31 11:48:03;;;;;;;13.02;4.10;;;5.80;99.90;;;;;;6090475;23;20146;-82
2022/01/31 11:50:29;;;;;;;11.50;6.00;;;5.30;99.90;;;;;;6064369;23;20205;-82
2022/01/31 11:52:58;;;;;;;9.83;3.00;;;5.10;99.90;;;;;;6088384;23;20440;-81
2022/01/31 11:55:29;;;;;;;9.07;2.83;;;6.00;99.90;;;;;;6089965;23;20473;-81
2022/01/31 11:57:58;;;;;;;20.10;4.68;;;5.40;99.90;;;;;;6062949;23;20291;-80
2022/01/31 12:00:27;;;;;;;12.02;2.97;;;5.00;99.90;;;;;;6088693;23;20268;-82
2022/01/31 12:03:05;;;;;;;9.23;3.65;;;5.60;99.90;;;;;;6070562;23;20198;-80
2022/01/31 12:05:35;;;;;;;7.30;3.33;;;6.30;99.90;;;;;;6088108;23;20519;-83
2022/01/31 12:08:03;;;;;;;11.15;4.00;;;5.50;99.90;;;;;;6085957;23;20173;-83
2022/01/31 12:10:40;;;;;;;14.23;3.58;;;5.50;99.90;;;;;;6089468;23;20538;-83
2022/01/31 12:13:45;;;;;;;14.43;3.60;;;5.50;99.90;;;;;;6090028;23;20189;-84
2022/01/31 12:16:36;;;;;;;9.15;2.47;;;5.10;99.90;;;;;;6085787;23;20189;-84
2022/01/31 12:22:04;;;;;;;18.20;4.70;;;5.60;99.90;;;;;;6083835;23;20180;-83
2022/01/31 12:24:47;;;;;;;13.82;3.25;;;5.50;99.90;;;;;;6083077;23;20159;-83
2022/01/31 12:27:13;;;;;;;10.98;3.78;;;;;;;;;;6084696;23;20588;-83
2022/01/31 12:30:01;;;;;;;13.60;3.80;;;5.70;99.90;;;;;;6090564;23;20158;-83
2022/01/31 12:32:36;;;;;;;12.13;3.60;;;5.70;99.90;;;;;;6084353;23;20162;-84
2022/01/31 12:35:06;;;;;;;7.60;3.50;;;5.60;99.90;;;;;;6090216;23;20174;-81
2022/01/31 12:37:54;;;;;;;9.20;3.40;;;5.90;99.90;;;;;;6088496;23;20145;-83
2022/01/31 12:40:29;;;;;;;14.55;4.60;;;6.20;99.90;;;;;;6089774;23;20154;-85
2022/01/31 12:45:37;;;;;;;15.98;4.55;;;5.90;99.90;;;;;;6098642;23;20229;-85
2022/01/31 12:48:07;;;;;;;11.18;4.00;;;6.00;99.90;;;;;;6089929;23;20162;-83
2022/01/31 12:50:37;;;;;;;16.13;4.60;;;5.60;99.90;;;;;;6092289;23;20614;-83
2022/01/31 12:53:14;;;;;;;20.38;3.47;;;5.60;99.90;;;;;;6091417;23;20197;-85
2022/01/31 12:55:56;;;;;;;10.18;3.45;;;5.60;99.90;;;;;;6087456;23;20189;-85
2022/01/31 12:58:35;;;;;;;12.43;4.60;;;5.70;99.90;;;;;;6086963;23;20274;-85
2022/01/31 13:01:46;;;;;;;14.95;3.88;;;5.40;99.90;;;;;;6087760;23;20149;-80
2022/01/31 13:04:14;;;;;;;15.05;3.55;;;5.40;99.90;;;;;;6088307;23;20170;-84
2022/01/31 13:06:44;;;;;;;9.25;3.38;;;5.20;99.90;;;;;;6092991;23;20692;-81
2022/01/31 13:09:23;;;;;;;7.00;4.95;;;5.30;99.90;;;;;;6094658;23;20229;-81
2022/01/31 13:12:15;;;;;;;2.50;2.35;;;6.00;99.90;;;;;;6086890;23;20781;-85
2022/01/31 13:14:45;;;;;;;5.13;2.75;;;5.50;99.90;;;;;;6089926;23;20148;-84
2022/01/31 13:17:24;;;;;;;5.38;3.05;;;5.40;99.90;;;;;;6089528;23;20181;-82
2022/01/31 13:19:55;;;;;;;6.85;2.90;;;6.30;99.90;;;;;;6087192;23;20157;-80
2022/01/31 13:22:33;;;;;;;9.77;3.42;;;5.50;99.90;;;;;;6087061;23;20158;-83
2022/01/31 13:25:02;;;;;;;3.78;2.53;;;5.20;99.90;;;;;;6087692;23;20599;-82
2022/01/31 13:27:45;;;;;;;5.20;3.08;;;5.40;99.90;;;;;;6090949;23;20473;-82
2022/01/31 13:30:22;;;;;;;13.18;3.85;;;6.30;99.90;;;;;;6065230;23;20202;-84
2022/01/31 13:32:49;;;;;;;9.38;3.60;;;5.40;99.90;;;;;;6088220;23;20166;-81
2022/01/31 13:35:17;;;;;;;13.13;5.80;;;5.40;99.90;;;;;;6088867;23;20192;-82
2022/01/31 13:38:08;;;;;;;10.80;5.15;;;5.30;99.90;;;;;;6092405;23;20225;-85
2022/01/31 13:40:43;;;;;;;8.88;3.67;;;5.70;99.90;;;;;;6094584;23;20154;-79
2022/01/31 13:43:25;;;;;;;8.73;4.00;;;5.40;99.90;;;;;;6098386;23;20166;-85
2022/01/31 13:46:26;;;;;;;11.43;3.50;;;5.40;99.90;;;;;;6098852;23;20217;-84
2022/01/31 13:51:30;;;;;;;9.17;4.40;;;5.60;99.90;;;;;;6095774;23;20394;-82
2022/01/31 13:54:16;;;;;;;7.40;3.60;;;6.50;99.90;;;;;;6095306;23;20374;-83
2022/01/31 13:56:47;;;;;;;6.85;3.40;;;5.50;99.90;;;;;;6097955;23;20189;-84
2022/01/31 13:59:17;;;;;;;8.38;4.10;;;5.50;99.90;;;;;;6092155;23;20253;-80
2022/01/31 14:01:44;;;;;;;3.00;2.78;;;5.50;99.90;;;;;;6095566;23;20203;-83
2022/01/31 14:04:28;;;;;;;16.15;3.95;;;5.60;99.90;;;;;;6092758;23;20606;-83
2022/01/31 14:06:54;;;;;;;9.05;4.50;;;5.50;99.90;;;;;;6092081;23;20157;-83
2022/01/31 14:09:20;;;;;;;11.33;3.70;;;;;;;;;;6096341;23;20169;-84
2022/01/31 14:11:51;;;;;;;11.25;4.60;;;5.60;99.90;;;;;;6093004;23;20473;-82
2022/01/31 14:14:19;;;;;;;8.45;3.60;;;6.60;99.90;;;;;;6098113;23;20559;-80
2022/01/31 14:16:48;;;;;;;6.97;4.18;;;5.50;99.90;;;;;;6102840;23;20212;-85